Time;durP1;ratioP1;P1;durP2;ratioP2;P2;SDS_P1;SDS_P2;PMS_P1;PMS_P2;Temp;Humidity;BMP_temperature;BMP_pressure;BME280_temperature;BME280_humidity;BME280_pressure;Samples;Min_cycle;Max_cycle;Signal;HPM_P1;HPM_P2
2022/06/27 00:01:15;;;;;;;;;;;;;;;15.74;100.00;98496.47;5072570;28;19925;-79
2022/06/27 00:03:43;;;;;;;;;;;;;;;15.56;100.00;98482.41;5072749;28;20402;-79
2022/06/27 00:06:11;;;;;;;;;;;;;;;16.02;100.00;98489.50;5056616;28;20019;-79
2022/06/27 00:08:38;;;;;;;;;;;;;;;15.13;100.00;98502.38;5076428;28;20330;-79
2022/06/27 00:11:06;;;;;;;;;;;;;;;15.87;100.00;98501.91;5076407;28;19986;-79
2022/06/27 00:13:33;;;;;;;;;;;;;;;14.80;100.00;98501.38;5076525;28;20012;-79
2022/06/27 00:16:01;;;;;;;;;;;;;;;14.77;100.00;98498.72;5076541;28;19960;-79
2022/06/27 00:18:31;;;;;;;;;;;;;;;14.85;100.00;98491.53;5076498;28;20358;-79
2022/06/27 00:20:59;;;;;;;;;;;;;;;15.08;100.00;98500.19;5076103;28;19978;-79
2022/06/27 00:23:26;;;;;;;;;;;;;;;15.32;100.00;98492.69;5076197;28;19967;-79
2022/06/27 00:25:53;;;;;;;;;;;;;;;15.09;100.00;98496.13;5074922;28;20030;-79
2022/06/27 00:28:21;;;;;;;;;;;;;;;15.68;100.00;98487.06;5076342;28;19967;-79
2022/06/27 00:30:48;;;;;;;;;;;;;;;15.07;100.00;98509.88;5073179;28;20366;-79
2022/06/27 00:33:15;;;;;;;;;;;;;;;14.90;100.00;98494.53;5074875;28;20343;-79
2022/06/27 00:35:43;;;;;;;;;;;;;;;15.14;100.00;98492.69;5074637;28;19935;-79
2022/06/27 00:38:11;;;;;;;;;;;;;;;15.43;100.00;98498.69;5075849;28;20433;-79
2022/06/27 00:40:39;;;;;;;;;;;;;;;15.29;100.00;98496.47;5076101;28;19970;-79
2022/06/27 00:43:07;;;;;;;;;;;;;;;14.77;100.00;98504.34;5074560;28;19924;-79
2022/06/27 00:45:34;;;;;;;;;;;;;;;15.25;100.00;98492.22;5074498;28;20287;-79
2022/06/27 00:48:02;;;;;;;;;;;;;;;15.68;100.00;98492.72;5074578;28;19978;-79
2022/06/27 00:50:29;;;;;;;;;;;;;;;15.67;100.00;98496.00;5074922;28;19940;-79
2022/06/27 00:52:58;;;;;;;;;;;;;;;15.70;100.00;98497.88;5074242;28;19931;-79
2022/06/27 00:55:28;;;;;;;;;;;;;;;15.55;100.00;98505.41;5074554;28;19940;-79
2022/06/27 00:57:55;;;;;;;;;;;;;;;14.98;100.00;98498.59;5074494;28;19924;-79
2022/06/27 01:00:23;;;;;;;;;;;;;;;15.12;100.00;98483.13;5075613;28;19940;-79
2022/06/27 01:02:51;;;;;;;;;;;;;;;15.61;100.00;98487.41;5074044;28;20449;-79
2022/06/27 01:05:18;;;;;;;;;;;;;;;15.04;100.00;98493.91;5073596;28;20353;-79
2022/06/27 01:07:47;;;;;;;;;;;;;;;14.99;100.00;98493.75;5075332;28;19925;-79
2022/06/27 01:10:15;;;;;;;;;;;;;;;15.17;100.00;98494.56;5075551;28;20445;-79
2022/06/27 01:12:43;;;;;;;;;;;;;;;14.80;100.00;98492.94;5075405;28;19975;-79
2022/06/27 01:15:11;;;;;;;;;;;;;;;14.88;100.00;98497.03;5073813;28;19931;-79
2022/06/27 01:17:39;;;;;;;;;;;;;;;14.61;100.00;98496.97;5073617;28;19932;-79
2022/06/27 01:20:08;;;;;;;;;;;;;;;14.84;100.00;98490.78;5074069;28;20247;-79
2022/06/27 01:22:39;;;;;;;;;;;;;;;14.89;100.00;98497.81;5074114;28;20015;-79
2022/06/27 01:25:08;;;;;;;;;;;;;;;14.79;100.00;98487.78;5073997;28;20364;-79
2022/06/27 01:27:35;;;;;;;;;;;;;;;15.03;100.00;98488.75;5073851;28;19924;-79
2022/06/27 01:30:04;;;;;;;;;;;;;;;14.46;100.00;98487.53;5057019;28;20379;-79
2022/06/27 01:32:33;;;;;;;;;;;;;;;14.22;100.00;98489.28;5057124;28;19974;-79
2022/06/27 01:35:01;;;;;;;;;;;;;;;14.83;100.00;98480.75;5056785;28;19931;-79
2022/06/27 01:37:29;;;;;;;;;;;;;;;14.50;100.00;98482.53;5074850;28;19924;-79
2022/06/27 01:40:00;;;;;;;;;;;;;;;14.73;100.00;98489.63;5056491;28;19995;-79
2022/06/27 01:42:30;;;;;;;;;;;;;;;14.47;100.00;98480.66;5073796;28;19931;-79
2022/06/27 01:44:59;;;;;;;;;;;;;;;14.61;100.00;98494.16;5073341;28;20429;-79
2022/06/27 01:47:29;;;;;;;;;;;;;;;14.39;100.00;98487.81;5073428;28;20287;-79
2022/06/27 01:50:02;;;;;;;;;;;;;;;14.61;100.00;98488.53;5074804;28;19924;-79
2022/06/27 01:52:34;;;;;;;;;;;;;;;14.89;100.00;98492.97;5073373;28;19924;-79
2022/06/27 01:55:03;;;;;;;;;;;;;;;15.05;100.00;98494.72;5073501;28;19943;-79
2022/06/27 01:57:34;;;;;;;;;;;;;;;14.87;100.00;98500.31;5073409;28;19920;-79
2022/06/27 02:00:05;;;;;;;;;;;;;;;15.10;100.00;98499.72;5073405;28;19959;-79
2022/06/27 02:02:56;;;;;;;;;;;;;;;15.06;100.00;98497.06;5074474;28;19928;-79
2022/06/27 02:05:24;;;;;;;;;;;;;;;15.39;100.00;98506.47;5072996;28;19931;-79
2022/06/27 02:07:55;;;;;;;;;;;;;;;15.08;100.00;98493.78;5072817;28;20283;-79
2022/06/27 02:10:22;;;;;;;;;;;;;;;15.43;100.00;98493.06;5073231;28;19959;-79
2022/06/27 02:12:50;;;;;;;;;;;;;;;15.16;100.00;98490.19;5073067;28;20323;-79
2022/06/27 02:15:20;;;;;;;;;;;;;;;14.80;100.00;98490.13;5056395;28;19925;-79
2022/06/27 02:17:48;;;;;;;;;;;;;;;14.48;100.00;98508.31;5072865;28;19990;-79
2022/06/27 02:20:18;;;;;;;;;;;;;;;14.79;100.00;98505.44;5072637;28;20011;-79
2022/06/27 02:22:47;;;;;;;;;;;;;;;14.58;100.00;98506.31;5073019;28;20025;-79
2022/06/27 02:25:14;;;;;;;;;;;;;;;14.77;100.00;98512.78;5072735;28;19964;-79
2022/06/27 02:27:41;;;;;;;;;;;;;;;14.60;100.00;98503.03;5055153;28;19994;-79
2022/06/27 02:30:14;;;;;;;;;;;;;;;14.89;100.00;98497.81;5073010;28;19928;-79
2022/06/27 02:32:41;;;;;;;;;;;;;;;15.09;100.00;98501.75;5073770;28;19964;-79
2022/06/27 02:35:09;;;;;;;;;;;;;;;15.02;100.00;98507.69;5072593;28;20346;-79
2022/06/27 02:37:40;;;;;;;;;;;;;;;14.95;100.00;98501.59;5072665;28;19925;-79
2022/06/27 02:40:09;;;;;;;;;;;;;;;15.25;100.00;98504.25;5056356;28;19925;-79
2022/06/27 02:42:36;;;;;;;;;;;;;;;15.44;100.00;98508.69;5072467;28;20352;-79
2022/06/27 02:45:04;;;;;;;;;;;;;;;15.51;100.00;98504.78;5072206;28;20376;-79
2022/06/27 02:47:34;;;;;;;;;;;;;;;15.44;100.00;98505.88;5072278;28;20170;-79
2022/06/27 02:50:01;;;;;;;;;;;;;;;15.43;100.00;98498.69;5072129;28;19924;-79
2022/06/27 02:52:35;;;;;;;;;;;;;;;15.21;100.00;98503.63;5072408;28;19990;-79
2022/06/27 02:55:11;;;;;;;;;;;;;;;15.84;100.00;98497.22;5072250;28;19924;-79
2022/06/27 02:58:01;;;;;;;;;;;;;;;15.62;100.00;98497.41;5072354;28;20406;-79
2022/06/27 03:00:30;;;;;;;;;;;;;;;15.86;100.00;98498.31;5072123;28;20375;-79
2022/06/27 03:03:00;;;;;;;;;;;;;;;15.93;100.00;98497.97;5055487;28;19925;-79
2022/06/27 03:05:33;;;;;;;;;;;;;;;15.22;100.00;98499.56;5072117;28;20394;-79
2022/06/27 03:08:01;;;;;;;;;;;;;;;15.02;100.00;98492.81;5071740;28;19924;-79
2022/06/27 03:10:29;;;;;;;;;;;;;;;15.38;100.00;98490.84;5071915;28;20007;-79
2022/06/27 03:12:56;;;;;;;;;;;;;;;15.55;100.00;98478.03;5072040;28;19925;-79
2022/06/27 03:15:24;;;;;;;;;;;;;;;14.88;100.00;98485.78;5071884;28;20031;-79
2022/06/27 03:17:53;;;;;;;;;;;;;;;14.90;100.00;98488.91;5071753;28;19928;-79
2022/06/27 03:20:27;;;;;;;;;;;;;;;15.09;100.00;98484.06;5056257;28;20315;-79
2022/06/27 03:23:23;;;;;;;;;;;;;;;14.98;100.00;98478.16;5069810;28;19943;-79
2022/06/27 03:25:55;;;;;;;;;;;;;;;15.10;100.00;98475.16;5071668;28;19981;-79
2022/06/27 03:28:28;;;;;;;;;;;;;;;14.56;100.00;98480.69;5071754;28;20284;-79
2022/06/27 03:30:59;;;;;;;;;;;;;;;14.34;100.00;98485.63;5071820;28;19977;-79
2022/06/27 03:33:27;;;;;;;;;;;;;;;14.58;100.00;98489.47;5071413;28;19950;-79
2022/06/27 03:36:03;;;;;;;;;;;;;;;14.71;100.00;98481.66;5071676;28;19935;-79
2022/06/27 03:38:31;;;;;;;;;;;;;;;14.78;100.00;98501.06;5055090;28;19958;-79
2022/06/27 03:40:59;;;;;;;;;;;;;;;15.01;100.00;98483.59;5071571;28;19932;-79
2022/06/27 03:43:27;;;;;;;;;;;;;;;15.09;100.00;98489.69;5071331;28;19924;-79
2022/06/27 03:45:56;;;;;;;;;;;;;;;14.70;100.00;98491.38;5071562;28;19935;-79
2022/06/27 03:51:33;;;;;;;;;;;;;;;15.10;100.00;98485.66;4993754;28;20000;-79
2022/06/27 03:54:01;;;;;;;;;;;;;;;15.30;100.00;98492.38;4994352;28;19929;-79
2022/06/27 03:56:28;;;;;;;;;;;;;;;15.35;100.00;98486.13;4994219;28;20285;-79
2022/06/27 03:58:56;;;;;;;;;;;;;;;14.60;100.00;98486.94;5010365;28;19932;-79
2022/06/27 04:01:23;;;;;;;;;;;;;;;14.21;100.00;98488.50;4994410;28;20303;-79
2022/06/27 04:03:51;;;;;;;;;;;;;;;14.47;100.00;98494.72;4994265;28;19926;-79
2022/06/27 04:06:19;;;;;;;;;;;;;;;14.40;100.00;98490.16;4994349;28;19929;-78
2022/06/27 04:08:48;;;;;;;;;;;;;;;14.44;100.00;98493.63;4994313;28;19968;-79
2022/06/27 04:11:15;;;;;;;;;;;;;;;15.03;100.00;98492.34;4994269;28;19936;-79
2022/06/27 04:13:46;;;;;;;;;;;;;;;15.52;100.00;98484.59;4994192;28;19952;-79
2022/06/27 04:16:32;;;;;;;;;;;;;;;15.01;100.00;98486.41;4996640;28;20005;-79
2022/06/27 04:19:35;;;;;;;;;;;;;;;15.27;100.00;98498.94;4971569;28;19981;-79
2022/06/27 04:22:19;;;;;;;;;;;;;;;15.31;100.00;98496.75;4955308;28;19933;-79
2022/06/27 04:24:48;;;;;;;;;;;;;;;14.66;100.00;98507.56;4955229;28;20389;-79
2022/06/27 04:27:20;;;;;;;;;;;;;;;14.84;100.00;98502.03;4955372;28;19926;-79
2022/06/27 04:29:48;;;;;;;;;;;;;;;14.94;100.00;98500.78;4993392;28;20484;-79
2022/06/27 04:32:17;;;;;;;;;;;;;;;15.07;100.00;98498.59;4994081;28;19988;-79
2022/06/27 04:34:46;;;;;;;;;;;;;;;15.15;100.00;98505.50;4994064;28;19926;-79
2022/06/27 04:37:13;;;;;;;;;;;;;;;15.12;100.00;98497.22;5010310;28;19961;-79
2022/06/27 04:40:08;;;;;;;;;;;;;;;15.38;100.00;98502.13;4995292;28;20415;-79
2022/06/27 04:42:35;;;;;;;;;;;;;;;15.62;100.00;98493.81;4993974;28;20016;-79
2022/06/27 04:45:05;;;;;;;;;;;;;;;15.28;100.00;98496.94;4993559;28;19976;-79
2022/06/27 04:47:33;;;;;;;;;;;;;;;15.26;100.00;98496.59;5010133;28;19925;-79
2022/06/27 04:50:11;;;;;;;;;;;;;;;15.49;100.00;98496.81;4995523;28;20304;-79
2022/06/27 04:52:38;;;;;;;;;;;;;;;14.70;100.00;98504.63;5002299;28;20308;-79
2022/06/27 04:55:08;;;;;;;;;;;;;;;14.81;100.00;98497.34;5057604;28;19932;-79
2022/06/27 04:57:37;;;;;;;;;;;;;;;15.25;100.00;98493.00;5074292;28;20417;-79
2022/06/27 05:00:08;;;;;;;;;;;;;;;14.40;100.00;98503.44;5074314;28;19973;-79
2022/06/27 05:03:13;;;;;;;;;;;;;;;14.64;100.00;98501.66;5013650;28;20376;-79
2022/06/27 05:05:49;;;;;;;;;;;;;;;14.98;100.00;98495.78;4981071;28;19925;-79
2022/06/27 05:08:17;;;;;;;;;;;;;;;15.10;100.00;98506.13;5013228;28;19925;-79
2022/06/27 05:10:47;;;;;;;;;;;;;;;15.03;100.00;98508.44;5013295;28;19932;-79
2022/06/27 05:13:15;;;;;;;;;;;;;;;15.25;100.00;98492.22;5013309;28;19984;-79
2022/06/27 05:15:42;;;;;;;;;;;;;;;15.14;100.00;98509.56;4997034;28;19980;-79
2022/06/27 05:18:15;;;;;;;;;;;;;;;15.26;100.00;98505.84;4997141;28;19964;-79
2022/06/27 05:20:43;;;;;;;;;;;;;;;15.37;100.00;98502.56;4980505;28;19932;-79
2022/06/27 05:23:12;;;;;;;;;;;;;;;15.08;100.00;98505.03;4996990;28;20024;-79
2022/06/27 05:25:41;;;;;;;;;;;;;;;15.50;100.00;98509.63;4996756;28;19932;-79
2022/06/27 05:28:09;;;;;;;;;;;;;;;15.43;100.00;98514.78;5012934;28;19929;-79
2022/06/27 05:30:36;;;;;;;;;;;;;;;14.58;100.00;98517.56;5013154;28;19932;-79
2022/06/27 05:33:05;;;;;;;;;;;;;;;14.28;100.00;98521.19;5019691;28;20016;-79
2022/06/27 05:35:33;;;;;;;;;;;;;;;14.61;100.00;98524.28;5073822;28;19974;-79
2022/06/27 05:38:01;;;;;;;;;;;;;;;15.09;100.00;98507.38;5073728;28;19994;-79
2022/06/27 05:40:28;;;;;;;;;;;;;;;15.07;100.00;98504.22;5056606;28;19978;-79
2022/06/27 05:42:57;;;;;;;;;;;;;;;14.75;100.00;98513.25;5072649;28;19970;-80
2022/06/27 05:45:25;;;;;;;;;;;;;;;14.81;100.00;98519.84;5072419;28;19928;-79
2022/06/27 05:48:13;;;;;;;;;;;;;;;14.93;100.00;98527.38;5043171;28;19925;-79
2022/06/27 05:50:56;;;;;;;;;;;;;;;15.20;100.00;98521.78;5073414;28;19933;-79
2022/06/27 05:53:24;;;;;;;;;;;;;;;14.97;100.00;98532.81;5073428;28;20011;-79
2022/06/27 05:55:52;;;;;;;;;;;;;;;14.89;100.00;98531.56;5073412;28;19932;-79
2022/06/27 05:58:19;;;;;;;;;;;;;;;15.43;100.00;98528.84;5056577;28;20346;-79
2022/06/27 06:00:47;;;;;;;;;;;;;;;15.30;100.00;98520.53;5073087;28;19925;-79
2022/06/27 06:03:15;;;;;;;;;;;;;;;15.54;100.00;98527.13;5073358;28;19931;-79
2022/06/27 06:05:44;;;;;;;;;;;;;;;15.92;100.00;98521.78;5073228;28;19925;-79
2022/06/27 06:08:14;;;;;;;;;;;;;;;15.46;100.00;98516.66;5056578;28;19974;-79
2022/06/27 06:10:41;;;;;;;;;;;;;;;15.56;100.00;98524.63;5056351;28;19996;-79
2022/06/27 06:13:09;;;;;;;;;;;;;;;15.70;100.00;98526.03;5056295;28;20290;-79
2022/06/27 06:15:38;;;;;;;;;;;;;;;16.08;100.00;98515.78;5073165;28;19985;-79
2022/06/27 06:18:05;;;;;;;;;;;;;;;15.80;100.00;98519.13;5073264;28;20306;-79
2022/06/27 06:20:33;;;;;;;;;;;;;;;15.55;100.00;98525.91;5072923;28;19924;-79
2022/06/27 06:23:00;;;;;;;;;;;;;;;15.60;100.00;98530.88;5072679;28;19925;-79
2022/06/27 06:25:29;;;;;;;;;;;;;;;15.79;100.00;98535.25;5056333;28;19924;-79
2022/06/27 06:28:01;;;;;;;;;;;;;;;16.09;100.00;98531.44;5072608;28;19929;-79
2022/06/27 06:30:30;;;;;;;;;;;;;;;15.45;100.00;98529.19;5040295;28;20015;-79
2022/06/27 06:33:05;;;;;;;;;;;;;;;15.68;100.00;98539.78;5055983;28;20329;-79
2022/06/27 06:35:35;;;;;;;;;;;;;;;15.92;100.00;98540.72;5056558;28;19929;-79
2022/06/27 06:38:04;;;;;;;;;;;;;;;15.31;100.00;98535.38;5072352;28;19934;-79
2022/06/27 06:40:31;;;;;;;;;;;;;;;15.53;100.00;98539.66;5072580;28;19928;-79
2022/06/27 06:43:00;;;;;;;;;;;;;;;15.57;100.00;98536.69;5038974;28;20406;-79
2022/06/27 06:45:43;;;;;;;;;;;;;;;15.97;100.00;98537.25;5073608;28;20019;-79
2022/06/27 06:48:17;;;;;;;;;;;;;;;15.34;100.00;98540.84;5072476;28;19928;-79
2022/06/27 06:52:49;;;;;;;;;;;;;;;15.67;100.00;98541.84;5090349;28;19912;-79
2022/06/27 06:55:18;;;;;;;;;;;;;;;15.84;100.00;98536.66;5088611;28;19960;-79
2022/06/27 06:57:45;;;;;;;;;;;;;;;15.75;100.00;98542.31;5089395;28;19981;-79
2022/06/27 07:00:12;;;;;;;;;;;;;;;15.90;100.00;98544.00;5089014;28;19932;-79
2022/06/27 07:02:40;;;;;;;;;;;;;;;16.39;100.00;98534.50;5090436;28;19924;-79
2022/06/27 07:05:08;;;;;;;;;;;;;;;16.19;100.00;98535.81;5090889;28;19924;-79
2022/06/27 07:07:36;;;;;;;;;;;;;;;16.39;100.00;98534.50;5089010;28;19928;-79
2022/06/27 07:10:04;;;;;;;;;;;;;;;16.21;100.00;98541.75;5089911;28;19924;-79
2022/06/27 07:12:33;;;;;;;;;;;;;;;15.94;100.00;98533.38;5090017;28;19977;-79
2022/06/27 07:15:01;;;;;;;;;;;;;;;16.37;100.00;98545.47;5089042;28;19974;-79
2022/06/27 07:17:29;;;;;;;;;;;;;;;16.19;100.00;98541.44;5122690;27;19929;-79
2022/06/27 07:20:00;;;;;;;;;;;;;;;16.41;100.00;98544.03;5090026;28;19985;-79
2022/06/27 07:22:28;;;;;;;;;;;;;;;16.19;100.00;98555.53;5071994;28;19931;-79
2022/06/27 07:24:58;;;;;;;;;;;;;;;16.37;100.00;98548.28;5089539;28;20019;-79
2022/06/27 07:27:29;;;;;;;;;;;;;;;16.10;100.00;98549.91;5088710;28;19985;-79
2022/06/27 07:29:57;;;;;;;;;;;;;;;16.06;100.00;98562.59;5122603;28;19956;-79
2022/06/27 07:32:26;;;;;;;;;;;;;;;16.40;100.00;98564.25;5088115;28;19973;-79
2022/06/27 07:34:54;;;;;;;;;;;;;;;15.95;100.00;98567.94;5089658;28;19970;-78
2022/06/27 07:37:21;;;;;;;;;;;;;;;16.51;100.00;98561.75;5089627;28;19967;-78
2022/06/27 07:39:49;;;;;;;;;;;;;;;16.41;100.00;98577.09;5088120;28;19924;-78
2022/06/27 07:42:16;;;;;;;;;;;;;;;16.45;100.00;98577.75;5088024;28;20156;-79
2022/06/27 07:44:44;;;;;;;;;;;;;;;16.62;100.00;98578.94;5089505;28;20327;-78
2022/06/27 07:47:11;;;;;;;;;;;;;;;16.11;100.00;98576.84;5088152;28;19924;-78
2022/06/27 07:49:39;;;;;;;;;;;;;;;16.10;100.00;98586.56;5088102;28;19925;-78
2022/06/27 07:52:09;;;;;;;;;;;;;;;15.98;100.00;98598.78;5089292;28;20375;-78
2022/06/27 07:54:37;;;;;;;;;;;;;;;15.68;100.00;98588.47;5088053;28;20398;-78
2022/06/27 07:57:05;;;;;;;;;;;;;;;15.81;100.00;98596.75;5071362;28;19930;-78
2022/06/27 07:59:32;;;;;;;;;;;;;;;15.84;100.00;98596.59;5089134;28;20086;-78
2022/06/27 08:02:00;;;;;;;;;;;;;;;16.12;100.00;98600.97;5087681;28;19929;-78
2022/06/27 08:04:28;;;;;;;;;;;;;;;16.21;100.00;98591.69;5091441;28;20329;-79
2022/06/27 08:06:56;;;;;;;;;;;;;;;15.52;100.00;98597.22;5108366;28;19929;-78
2022/06/27 08:09:26;;;;;;;;;;;;;;;15.76;100.00;98605.84;5074227;28;19925;-79
2022/06/27 08:11:54;;;;;;;;;;;;;;;16.12;100.00;98603.78;5090777;28;19968;-79
2022/06/27 08:14:25;;;;;;;;;;;;;;;16.31;100.00;98600.94;5074369;28;19928;-81
2022/06/27 08:16:53;;;;;;;;;;;;;;;16.19;100.00;98600.63;5058095;28;19925;-81
2022/06/27 08:19:23;;;;;;;;;;;;;;;16.06;100.00;98599.25;5073304;28;19931;-81
2022/06/27 08:21:51;;;;;;;;;;;;;;;15.80;100.00;98607.25;5040789;28;20433;-81
2022/06/27 08:24:18;;;;;;;;;;;;;;;16.11;100.00;98615.53;5057333;28;20367;-81
2022/06/27 08:26:49;;;;;;;;;;;;;;;16.05;100.00;98609.72;5057497;28;20333;-81
2022/06/27 08:29:17;;;;;;;;;;;;;;;16.27;100.00;98617.25;5073834;28;19935;-81
2022/06/27 08:31:46;;;;;;;;;;;;;;;16.28;100.00;98613.94;5073562;28;19924;-81
2022/06/27 08:34:14;;;;;;;;;;;;;;;16.55;100.00;98607.47;5074953;28;19924;-81
2022/06/27 08:36:42;;;;;;;;;;;;;;;16.39;100.00;98613.44;5056825;28;20022;-81
2022/06/27 08:39:11;;;;;;;;;;;;;;;16.57;100.00;98613.44;5041132;28;19932;-81
2022/06/27 08:41:39;;;;;;;;;;;;;;;16.27;100.00;98622.88;5040796;28;19931;-81
2022/06/27 08:44:06;;;;;;;;;;;;;;;16.47;100.00;98614.69;5073295;28;19924;-81
2022/06/27 08:46:35;;;;;;;;;;;;;;;16.03;100.00;98617.09;5074496;28;20471;-81
2022/06/27 08:49:04;;;;;;;;;;;;;;;16.32;100.00;98625.03;5074873;28;19925;-81
2022/06/27 08:51:33;;;;;;;;;;;;;;;16.21;100.00;98631.94;5074387;28;20318;-81
2022/06/27 08:54:01;;;;;;;;;;;;;;;16.32;100.00;98633.50;5073241;28;20336;-81
2022/06/27 08:56:30;;;;;;;;;;;;;;;16.54;100.00;98631.31;5056485;28;20171;-81
2022/06/27 08:58:59;;;;;;;;;;;;;;;16.49;100.00;98648.84;5074606;28;19931;-81
2022/06/27 09:01:27;;;;;;;;;;;;;;;15.63;100.00;98670.75;5056564;28;20339;-82
2022/06/27 09:04:00;;;;;;;;;;;;;;;15.07;100.00;98675.88;5074406;28;20015;-81
2022/06/27 09:06:31;;;;;;;;;;;;;;;15.02;100.00;98676.50;5056656;28;20007;-81
2022/06/27 09:09:06;;;;;;;;;;;;;;;15.08;100.00;98680.25;5073250;28;19928;-79
2022/06/27 09:11:39;;;;;;;;;;;;;;;14.99;100.00;98677.41;5073321;28;19924;-79
2022/06/27 09:14:26;;;;;;;;;;;;;;;15.12;100.00;98675.25;5055514;28;19938;-80
2022/06/27 09:16:58;;;;;;;;;;;;;;;15.18;100.00;98683.88;5056144;28;19928;-80
2022/06/27 09:19:44;;;;;;;;;;;;;;;15.07;100.00;98684.31;5074152;28;19934;-80
2022/06/27 09:22:15;;;;;;;;;;;;;;;15.21;100.00;98686.56;5056122;28;19924;-80
2022/06/27 09:25:02;;;;;;;;;;;;;;;15.29;100.00;98685.03;5074105;28;19925;-80
2022/06/27 09:27:50;;;;;;;;;;;;;;;15.54;100.00;98684.03;5056305;28;19924;-80
2022/06/27 09:30:21;;;;;;;;;;;;;;;15.78;100.00;98685.03;5072634;28;19924;-80
2022/06/27 09:32:51;;;;;;;;;;;;;;;15.96;100.00;98688.63;5073730;28;19924;-80
2022/06/27 09:35:35;;;;;;;;;;;;;;;16.18;100.00;98694.91;5072388;28;20399;-80
2022/06/27 09:38:04;;;;;;;;;;;;;;;16.37;100.00;98689.25;5089572;28;19924;-80
2022/06/27 09:40:33;;;;;;;;;;;;;;;16.42;100.00;98697.84;5072416;28;20451;-80
2022/06/27 09:43:05;;;;;;;;;;;;;;;16.60;100.00;98702.75;5039897;28;20327;-80
2022/06/27 09:45:33;;;;;;;;;;;;;;;16.79;100.00;98709.91;5072544;28;20315;-80
2022/06/27 09:48:02;;;;;;;;;;;;;;;16.89;100.00;98698.13;5071924;28;20019;-80
2022/06/27 09:50:32;;;;;;;;;;;;;;;16.65;100.00;98702.06;5072758;28;19939;-80
2022/06/27 09:53:00;;;;;;;;;;;;;;;16.59;100.00;98701.16;5072408;28;20291;-80
2022/06/27 09:55:29;;;;;;;;;;;;;;;16.45;100.00;98704.63;5073472;28;19924;-80
2022/06/27 09:57:59;;;;;;;;;;;;;;;16.45;100.00;98704.63;5072321;28;19931;-80
2022/06/27 10:00:29;;;;;;;;;;;;;;;16.60;100.00;98703.50;5055308;28;20029;-80
2022/06/27 10:03:01;;;;;;;;;;;;;;;16.20;100.00;98712.13;5072560;28;19974;-79
2022/06/27 10:05:29;;;;;;;;;;;;;;;16.13;100.00;98700.38;5073112;28;19924;-79
2022/06/27 10:07:58;;;;;;;;;;;;;;;16.21;100.00;98704.44;5072178;28;20015;-80
2022/06/27 10:10:29;;;;;;;;;;;;;;;16.02;100.00;98706.47;5055420;28;19929;-79
2022/06/27 10:13:01;;;;;;;;;;;;;;;16.13;100.00;98720.88;5055149;28;20560;-79
2022/06/27 10:15:36;;;;;;;;;;;;;;;15.92;100.00;98710.53;5088842;28;19962;-80
2022/06/27 10:18:04;;;;;;;;;;;;;;;16.13;100.00;98714.47;5071881;28;19964;-79
2022/06/27 10:20:33;;;;;;;;;;;;;;;16.23;100.00;98714.03;5072024;28;19932;-80
2022/06/27 10:23:03;;;;;;;;;;;;;;;16.53;100.00;98712.28;5055060;28;20333;-79
2022/06/27 10:25:31;;;;;;;;;;;;;;;16.40;100.00;98720.13;5072066;28;19978;-79
2022/06/27 10:28:08;;;;;;;;;;;;;;;16.70;100.00;98729.66;5088741;28;19928;-80
2022/06/27 10:30:39;;;;;;;;;;;;;;;16.39;100.00;98723.41;5073198;28;19931;-80
2022/06/27 10:33:24;;;;;;;;;;;;;;;16.53;100.00;98725.59;5071652;28;20011;-79
2022/06/27 10:38:22;;;;;;;;;;;;;;;16.00;100.00;98728.72;5073003;28;19932;-79
2022/06/27 10:40:51;;;;;;;;;;;;;;;16.15;100.00;98732.47;5055735;28;20437;-79
2022/06/27 10:43:38;;;;;;;;;;;;;;;15.87;100.00;98735.75;5051820;28;19925;-79
2022/06/27 10:46:05;;;;;;;;;;;;;;;14.75;100.00;98746.66;5051594;28;19932;-79
2022/06/27 10:48:34;;;;;;;;;;;;;;;14.41;100.00;98749.53;5050891;28;20058;-82
2022/06/27 10:51:21;;;;;;;;;;;;;;;14.27;100.00;98750.03;5068201;28;19931;-82
2022/06/27 10:53:50;;;;;;;;;;;;;;;14.20;100.00;98745.44;5067983;28;20442;-81
2022/06/27 10:56:26;;;;;;;;;;;;;;;14.12;100.00;98752.53;5052769;28;19963;-79
2022/06/27 10:58:54;;;;;;;;;;;;;;;14.65;100.00;98747.03;5051258;28;20346;-79
2022/06/27 11:01:22;;;;;;;;;;;;;;;15.00;100.00;98740.88;5052355;28;19929;-79
2022/06/27 11:03:50;;;;;;;;;;;;;;;15.32;100.00;98743.22;5067792;28;19932;-79
2022/06/27 11:06:18;;;;;;;;;;;;;;;15.95;100.00;98748.25;5034758;28;19929;-79
2022/06/27 11:08:46;;;;;;;;;;;;;;;16.28;100.00;98749.25;5067727;28;20384;-79
2022/06/27 11:11:17;;;;;;;;;;;;;;;16.22;100.00;98751.13;5050873;28;19925;-79
2022/06/27 11:13:49;;;;;;;;;;;;;;;16.66;100.00;98757.25;5067639;28;20268;-79
2022/06/27 11:16:18;;;;;;;;;;;;;;;16.94;100.00;98750.31;5035144;28;20303;-80
2022/06/27 11:18:45;;;;;;;;;;;;;;;17.14;100.00;98759.84;5051283;28;19979;-80
2022/06/27 11:21:15;;;;;;;;;;;;;;;16.55;100.00;98743.63;5067530;28;19932;-79
2022/06/27 11:23:48;;;;;;;;;;;;;;;16.01;100.00;98752.81;5050970;28;20020;-79
2022/06/27 11:26:17;;;;;;;;;;;;;;;15.86;100.00;98763.13;5052605;28;19932;-79
2022/06/27 11:34:26;;;;;;;;;;;;;;;17.53;100.00;98757.97;5084613;28;19964;-80
2022/06/27 11:36:55;;;;;;;;;;;;;;;17.78;100.00;98754.72;5067963;28;19952;-80
2022/06/27 11:39:27;;;;;;;;;;;;;;;17.16;100.00;98759.34;5071281;28;20434;-79
2022/06/27 11:41:59;;;;;;;;;;;;;;;17.93;100.00;98769.72;5071787;28;19929;-80
2022/06/27 11:44:27;;;;;;;;;;;;;;;17.44;100.00;98760.84;5056054;28;19924;-79
2022/06/27 11:47:04;;;;;;;;;;;;;;;17.07;100.00;98776.31;5038041;28;19925;-79
2022/06/27 11:49:35;;;;;;;;;;;;;;;15.97;100.00;98786.00;5071677;28;19924;-79
2022/06/27 11:52:07;;;;;;;;;;;;;;;15.51;100.00;98792.72;5054487;28;19924;-79
2022/06/27 11:54:45;;;;;;;;;;;;;;;15.35;100.00;98807.03;5054732;28;19929;-79
2022/06/27 11:57:22;;;;;;;;;;;;;;;15.39;100.00;98813.31;5071123;28;19926;-80
2022/06/27 11:59:51;;;;;;;;;;;;;;;14.74;100.00;98811.81;5055730;28;20453;-79
2022/06/27 12:02:45;;;;;;;;;;;;;;;14.40;100.00;98804.94;5055755;28;20391;-79
2022/06/27 12:05:16;;;;;;;;;;;;;;;14.73;100.00;98815.84;5054365;28;19925;-79
2022/06/27 12:07:58;;;;;;;;;;;;;;;15.35;100.00;98812.66;5071377;28;19932;-80
2022/06/27 12:10:44;;;;;;;;;;;;;;;14.93;100.00;98830.38;5055678;28;20010;-80
2022/06/27 12:13:13;;;;;;;;;;;;;;;14.34;100.00;98828.50;5070991;28;19925;-79
2022/06/27 12:15:42;;;;;;;;;;;;;;;14.52;100.00;98834.28;5070952;28;19948;-79
2022/06/27 12:18:12;;;;;;;;;;;;;;;14.09;100.00;98817.25;5087331;28;19929;-80
2022/06/27 12:20:41;;;;;;;;;;;;;;;14.05;100.00;98825.84;5087413;28;19928;-79
2022/06/27 12:23:09;;;;;;;;;;;;;;;14.30;100.00;98833.44;5070555;28;20375;-79
2022/06/27 12:25:36;;;;;;;;;;;;;;;14.07;100.00;98822.56;5053995;28;20277;-79
2022/06/27 12:28:05;;;;;;;;;;;;;;;14.31;100.00;98824.53;5071021;28;20295;-79
2022/06/27 12:30:33;;;;;;;;;;;;;;;14.54;100.00;98814.13;5053802;28;20459;-79
2022/06/27 12:33:01;;;;;;;;;;;;;;;14.83;100.00;98820.31;5053625;28;19925;-79
2022/06/27 12:35:28;;;;;;;;;;;;;;;15.27;100.00;98819.81;5054007;28;19932;-79
2022/06/27 12:38:00;;;;;;;;;;;;;;;15.77;100.00;98821.47;5053629;28;20338;-79
2022/06/27 12:40:28;;;;;;;;;;;;;;;16.06;100.00;98822.66;5053778;28;19987;-79
2022/06/27 12:42:58;;;;;;;;;;;;;;;15.83;100.00;98817.56;5069925;28;20087;-80
2022/06/27 12:45:26;;;;;;;;;;;;;;;16.41;100.00;98816.75;5053739;28;20015;-79
2022/06/27 12:47:53;;;;;;;;;;;;;;;16.41;100.00;98825.22;5037475;28;20265;-80
2022/06/27 12:50:21;;;;;;;;;;;;;;;16.67;100.00;98829.34;5054514;28;20023;-79
2022/06/27 12:52:49;;;;;;;;;;;;;;;16.75;100.00;98827.78;5053604;28;20277;-80
2022/06/27 12:55:17;;;;;;;;;;;;;;;16.28;100.00;98828.97;5053091;28;20388;-79
2022/06/27 12:57:44;;;;;;;;;;;;;;;16.10;100.00;98840.19;5054473;28;20295;-79
2022/06/27 13:00:12;;;;;;;;;;;;;;;16.18;100.00;98838.66;5053329;28;19924;-80
2022/06/27 13:02:40;;;;;;;;;;;;;;;16.32;100.00;98833.66;5053380;28;19928;-80
2022/06/27 13:05:09;;;;;;;;;;;;;;;16.42;100.00;98821.16;5053385;28;19940;-80